Time;durP1;ratioP1;P1;durP2;ratioP2;P2;SDS_P1;SDS_P2;PMS_P1;PMS_P2;Temp;Humidity;BMP_temperature;BMP_pressure;BME280_temperature;BME280_humidity;BME280_pressure;Samples;Min_cycle;Max_cycle;Signal;HPM_P1;HPM_P2
2021/12/20 00:02:06;;;;;;;9.45;5.25;;;;;;;3.65;59.47;94618.88;5028104;28;20104;-60
2021/12/20 00:04:31;;;;;;;8.30;5.65;;;;;;;3.89;59.22;94677.41;5027795;28;20025;-62
2021/12/20 00:06:57;;;;;;;9.82;5.45;;;;;;;3.91;59.31;94667.97;5028415;28;20032;-63
2021/12/20 00:09:22;;;;;;;8.15;5.35;;;;;;;3.84;59.68;94648.72;5028188;28;20564;-64
2021/12/20 00:11:47;;;;;;;7.35;5.05;;;;;;;3.78;59.57;94654.09;5028176;28;20017;-63
2021/12/20 00:14:13;;;;;;;6.45;4.30;;;;;;;3.81;59.71;94669.25;5027818;28;20044;-63
2021/12/20 00:16:39;;;;;;;8.05;4.97;;;;;;;3.58;60.18;94639.63;5027906;28;20052;-61
2021/12/20 00:19:04;;;;;;;7.95;4.38;;;;;;;3.57;60.37;94659.19;5027883;28;20027;-60
2021/12/20 00:21:30;;;;;;;6.35;3.78;;;;;;;3.58;60.21;94672.78;5028060;28;20029;-61
2021/12/20 00:23:55;;;;;;;8.32;4.40;;;;;;;3.55;60.62;94685.66;5027807;28;20112;-63
2021/12/20 00:26:21;;;;;;;6.95;4.50;;;;;;;3.47;60.76;94679.13;5027578;28;20021;-63
2021/12/20 00:28:46;;;;;;;7.45;5.07;;;;;;;3.44;60.91;94678.41;5025841;28;20067;-63
2021/12/20 00:31:11;;;;;;;7.22;4.75;;;;;;;3.30;60.83;94646.69;5027968;28;20116;-62
2021/12/20 00:33:37;;;;;;;5.53;3.88;;;;;;;3.35;61.04;94683.91;5027950;28;20029;-63
2021/12/20 00:36:09;;;;;;;4.95;3.70;;;;;;;3.33;61.14;94665.28;5028069;28;20026;-61
2021/12/20 00:41:19;;;;;;;7.40;5.18;;;;;;;3.23;61.34;94655.47;5028181;28;20547;-63
2021/12/20 00:43:48;;;;;;;6.97;4.13;;;;;;;3.24;61.91;94676.69;5028056;28;20057;-63
2021/12/20 00:46:14;;;;;;;6.78;4.50;;;;;;;3.03;61.30;94638.41;5028131;28;20029;-62
2021/12/20 00:48:40;;;;;;;6.95;4.55;;;;;;;3.29;61.65;94667.13;5027921;28;20033;-64
2021/12/20 00:51:05;;;;;;;7.20;4.63;;;;;;;2.99;61.99;94630.97;5027282;28;20500;-64
2021/12/20 00:53:31;;;;;;;5.10;3.00;;;;;;;3.05;61.53;94636.66;5028070;28;20033;-63
2021/12/20 00:55:56;;;;;;;7.13;4.65;;;;;;;3.15;61.62;94641.34;5027549;28;20038;-63
2021/12/20 00:58:22;;;;;;;6.30;4.03;;;;;;;3.39;61.01;94665.03;5027894;28;20033;-63
2021/12/20 01:00:55;;;;;;;7.40;4.88;;;;;;;3.28;61.42;94650.16;5027807;28;20026;-63
2021/12/20 01:03:21;;;;;;;7.22;4.60;;;;;;;3.47;61.11;94661.28;5027122;28;20025;-62
2021/12/20 01:05:47;;;;;;;6.93;4.55;;;;;;;3.49;61.07;94674.81;5027479;28;20045;-63
2021/12/20 01:08:14;;;;;;;6.88;4.70;;;;;;;3.48;60.73;94678.25;5027754;28;20032;-63
2021/12/20 01:10:46;;;;;;;7.68;4.85;;;;;;;3.59;60.43;94666.75;5027493;28;20049;-62
2021/12/20 01:13:15;;;;;;;7.03;5.28;;;;;;;3.52;60.47;94661.09;5027369;28;20022;-64
2021/12/20 01:15:47;;;;;;;8.10;5.05;;;;;;;3.61;60.47;94670.91;5028518;28;20096;-62
2021/12/20 01:18:12;;;;;;;8.23;5.38;;;;;;;3.61;60.89;94662.44;5031027;28;20113;-63
2021/12/20 01:20:41;;;;;;;6.80;4.22;;;;;;;3.43;60.16;94636.00;5031434;28;20041;-64
2021/12/20 01:23:06;;;;;;;6.32;4.72;;;;;;;3.64;60.61;94670.78;5031160;28;20033;-62
2021/12/20 01:25:32;;;;;;;7.03;5.07;;;;;;;3.67;60.33;94667.28;5031145;28;20120;-62
2021/12/20 01:27:58;;;;;;;7.28;4.68;;;;;;;3.68;59.60;94654.47;5030861;28;20025;-62
2021/12/20 01:30:25;;;;;;;5.28;3.42;;;;;;;3.45;60.01;94637.56;5031048;28;20026;-62
2021/12/20 01:32:51;;;;;;;4.78;3.85;;;;;;;3.56;59.91;94667.75;5030979;28;20075;-62
2021/12/20 01:35:18;;;;;;;5.13;3.75;;;;;;;3.50;59.96;94666.25;5031184;28;20459;-62
2021/12/20 01:37:44;;;;;;;8.32;4.30;;;;;;;3.28;60.46;94634.88;4996134;28;20057;-64
2021/12/20 01:40:12;;;;;;;6.75;5.03;;;;;;;3.38;60.69;94663.38;5030616;28;20079;-63
2021/12/20 01:42:38;;;;;;;7.22;5.63;;;;;;;3.15;60.59;94629.47;5030864;28;20116;-62
2021/12/20 01:45:06;;;;;;;4.90;3.22;;;;;;;3.38;60.52;94654.03;5030890;28;20364;-62
2021/12/20 01:47:36;;;;;;;6.60;4.07;;;;;;;3.42;60.15;94654.72;5030427;28;20480;-63
2021/12/20 01:50:06;;;;;;;5.75;3.70;;;;;;;3.47;59.91;94661.28;5013130;28;20100;-62
2021/12/20 01:52:40;;;;;;;6.25;3.90;;;;;;;3.44;60.41;94653.78;5030788;28;20037;-64
2021/12/20 01:55:08;;;;;;;6.20;4.50;;;;;;;3.32;60.52;94636.44;5030964;28;20504;-62
2021/12/20 01:57:34;;;;;;;6.70;4.68;;;;;;;3.42;60.69;94653.00;5030469;28;20036;-62
2021/12/20 02:00:03;;;;;;;7.03;4.68;;;;;;;3.35;60.38;94645.69;5012865;28;20021;-62
2021/12/20 02:02:28;;;;;;;4.47;3.47;;;;;;;3.43;60.31;94671.69;5030062;28;20148;-63
2021/12/20 02:05:01;;;;;;;6.47;4.25;;;;;;;3.33;60.87;94666.13;5030652;28;20040;-62
2021/12/20 02:07:49;;;;;;;7.95;4.85;;;;;;;3.21;60.74;94659.78;5030395;28;20029;-62
2021/12/20 02:10:16;;;;;;;6.68;4.80;;;;;;;3.25;61.29;94643.50;5030490;28;20080;-62
2021/12/20 02:12:41;;;;;;;6.63;4.97;;;;;;;3.43;60.49;94669.94;5012626;28;20459;-63
2021/12/20 02:15:07;;;;;;;7.32;5.05;;;;;;;3.49;60.36;94669.72;5029600;28;20026;-61
2021/12/20 02:17:33;;;;;;;5.68;4.32;;;;;;;3.54;60.29;94678.88;5029990;28;20128;-62
2021/12/20 02:20:03;;;;;;;7.35;4.43;;;;;;;3.57;60.59;94673.66;5030173;28;20080;-62
2021/12/20 02:22:29;;;;;;;6.90;4.53;;;;;;;3.57;60.04;94678.75;5030217;28;20021;-64
2021/12/20 02:24:54;;;;;;;8.23;4.88;;;;;;;3.59;60.65;94677.81;5030348;28;20032;-63
2021/12/20 02:27:22;;;;;;;8.55;4.97;;;;;;;3.60;60.53;94671.81;5029204;28;20412;-64
2021/12/20 02:30:03;;;;;;;6.88;4.43;;;;;;;3.56;59.96;94664.34;5029791;28;20033;-62
2021/12/20 02:38:15;;;;;;;7.95;5.15;;;;;;;3.54;60.55;94666.94;5029469;28;20099;-62
2021/12/20 02:40:40;;;;;;;6.18;4.55;;;;;;;3.50;61.30;94662.88;5029954;28;20022;-63
2021/12/20 02:43:07;;;;;;;6.93;5.00;;;;;;;3.46;61.08;94664.72;5029713;28;20029;-62
2021/12/20 02:45:36;;;;;;;7.30;5.35;;;;;;;3.32;60.96;94649.16;5029601;28;20716;-64
2021/12/20 02:48:02;;;;;;;7.65;4.80;;;;;;;2.38;61.14;94505.19;5029521;28;20037;-61
2021/12/20 02:50:27;;;;;;;8.50;5.47;;;;;;;3.46;61.02;94676.63;5027857;28;20022;-62
2021/12/20 02:52:53;;;;;;;8.68;5.45;;;;;;;3.45;61.51;94675.81;5029695;28;20037;-63
2021/12/20 02:55:18;;;;;;;7.03;4.70;;;;;;;3.42;61.54;94680.22;5029424;28;20570;-63
2021/12/20 02:57:44;;;;;;;7.10;5.13;;;;;;;3.24;61.17;94641.00;5029319;28;20845;-63
2021/12/20 03:00:10;;;;;;;7.57;4.63;;;;;;;3.34;61.49;94677.97;5029697;28;20052;-62
2021/12/20 03:02:36;;;;;;;6.68;4.57;;;;;;;3.31;61.92;94667.88;5029225;28;20753;-63
2021/12/20 03:05:03;;;;;;;6.07;4.28;;;;;;;3.05;61.92;94623.91;5029523;28;20129;-63
2021/12/20 03:07:31;;;;;;;9.38;4.97;;;;;;;3.40;62.19;94667.53;5029132;28;20522;-62
2021/12/20 03:10:02;;;;;;;8.32;4.63;;;;;;;3.33;62.02;94653.38;5029084;28;20037;-62
2021/12/20 03:12:30;;;;;;;7.53;6.07;;;;;;;3.44;61.81;94670.78;5029195;28;20025;-65
2021/12/20 03:15:02;;;;;;;8.35;5.97;;;;;;;3.46;62.00;94661.34;5028366;28;20319;-64
2021/12/20 03:17:28;;;;;;;7.97;5.97;;;;;;;3.46;61.99;94661.34;5028857;28;20045;-64
2021/12/20 03:19:53;;;;;;;6.38;4.68;;;;;;;3.43;61.67;94656.38;5029171;28;20528;-64
2021/12/20 03:22:19;;;;;;;7.13;5.55;;;;;;;3.49;61.49;94672.25;5029305;28;20048;-63
2021/12/20 03:24:44;;;;;;;8.60;5.50;;;;;;;3.32;62.26;94651.72;5028881;28;20029;-63
2021/12/20 03:27:10;;;;;;;7.50;5.35;;;;;;;3.41;62.07;94656.44;5028354;28;20108;-63
2021/12/20 03:29:35;;;;;;;6.63;5.35;;;;;;;3.46;62.30;94666.44;5028684;28;20037;-62
2021/12/20 03:32:01;;;;;;;9.02;5.97;;;;;;;3.40;62.38;94644.59;5028907;28;20067;-63
2021/12/20 03:34:26;;;;;;;7.97;5.82;;;;;;;3.52;61.96;94657.72;5028701;28;20033;-62
2021/12/20 03:36:52;;;;;;;9.75;6.22;;;;;;;3.68;61.69;94681.69;5028845;28;20040;-62
2021/12/20 03:39:18;;;;;;;9.27;6.13;;;;;;;3.58;62.05;94678.69;5027644;28;20467;-66
2021/12/20 03:41:43;;;;;;;8.35;5.38;;;;;;;3.66;61.63;94665.63;5028257;28;20075;-64
2021/12/20 03:44:09;;;;;;;8.88;6.38;;;;;;;3.50;61.82;94645.03;5028597;28;20060;-64
2021/12/20 03:46:36;;;;;;;9.20;7.00;;;;;;;3.83;61.84;94681.03;5028468;28;20048;-63
2021/12/20 03:49:01;;;;;;;9.15;6.68;;;;;;;3.86;62.29;94682.66;5027011;28;20037;-62
2021/12/20 03:51:27;;;;;;;9.90;7.03;;;;;;;3.90;61.83;94685.91;5027852;28;20026;-63
2021/12/20 03:53:52;;;;;;;10.68;7.15;;;;;;;3.76;62.11;94674.56;5028528;28;20018;-62
2021/12/20 03:56:18;;;;;;;9.35;6.63;;;;;;;3.83;62.30;94691.25;5028446;28;20531;-63
2021/12/20 03:58:44;;;;;;;9.23;6.90;;;;;;;3.79;62.74;94699.94;5010747;28;20037;-63
2021/12/20 04:01:11;;;;;;;9.65;6.63;;;;;;;3.72;62.95;94678.09;5028325;28;20029;-63
2021/12/20 04:03:38;;;;;;;10.52;6.82;;;;;;;3.46;63.31;94641.78;5010364;28;20030;-62
2021/12/20 04:06:07;;;;;;;9.52;5.75;;;;;;;3.38;63.11;94627.69;5028555;28;20052;-62
2021/12/20 04:08:33;;;;;;;11.10;7.10;;;;;;;3.77;63.98;94706.81;5028191;28;20029;-62
2021/12/20 04:10:59;;;;;;;13.02;8.23;;;;;;;3.62;64.68;94699.78;5028100;28;20179;-63
2021/12/20 04:13:26;;;;;;;12.35;8.30;;;;;;;3.67;65.19;94714.03;5028141;28;20425;-64
2021/12/20 04:15:51;;;;;;;11.55;7.53;;;;;;;3.68;64.98;94707.19;5027657;28;20063;-63
2021/12/20 04:18:17;;;;;;;11.35;7.97;;;;;;;3.72;64.97;94711.25;5028150;28;20048;-63
2021/12/20 04:20:43;;;;;;;9.82;7.07;;;;;;;3.27;64.14;94646.78;5028188;28;20101;-61
2021/12/20 04:23:08;;;;;;;9.48;6.82;;;;;;;3.61;64.06;94719.38;5028278;28;20146;-64
2021/12/20 04:25:33;;;;;;;9.65;7.35;;;;;;;3.38;65.10;94694.81;5028265;28;20030;-61
2021/12/20 04:27:59;;;;;;;7.85;5.13;;;;;;;3.48;65.76;94731.78;5027792;28;20465;-62
2021/12/20 04:30:28;;;;;;;10.82;7.82;;;;;;;3.37;66.65;94728.81;5026583;28;20032;-62
2021/12/20 04:32:54;;;;;;;10.93;7.30;;;;;;;3.39;67.03;94724.47;5027977;28;20558;-61
2021/12/20 04:35:19;;;;;;;12.00;8.20;;;;;;;3.40;67.32;94733.78;5028220;28;20029;-64
2021/12/20 04:37:46;;;;;;;10.88;7.75;;;;;;;3.43;67.25;94727.75;5027808;28;20168;-62
2021/12/20 04:40:18;;;;;;;12.30;9.43;;;;;;;3.49;67.44;94723.25;5028025;28;20033;-63
2021/12/20 04:42:43;;;;;;;;;;;;;;;3.46;67.00;94730.16;5028474;28;20026;-63
2021/12/20 04:45:09;;;;;;;13.38;9.20;;;;;;;3.31;67.78;94722.25;5027986;28;19924;-62
2021/12/20 04:47:34;;;;;;;14.57;9.05;;;;;;;3.41;68.25;94738.03;5025659;28;20026;-63
2021/12/20 04:50:00;;;;;;;13.45;9.70;;;;;;;3.28;68.63;94718.97;5023875;28;20117;-63
2021/12/20 04:52:26;;;;;;;13.15;9.32;;;;;;;3.52;67.40;94736.75;5031768;28;20032;-62
2021/12/20 04:54:52;;;;;;;12.95;8.70;;;;;;;3.46;68.11;94733.56;5032207;28;20033;-62
2021/12/20 04:57:18;;;;;;;13.13;8.60;;;;;;;3.06;67.47;94684.16;5031413;28;20037;-62
2021/12/20 04:59:43;;;;;;;10.65;7.00;;;;;;;3.26;67.52;94749.66;5032530;28;20129;-62
2021/12/20 05:02:09;;;;;;;10.07;6.95;;;;;;;3.16;67.84;94735.56;5031657;28;20101;-62
2021/12/20 05:04:34;;;;;;;10.20;6.60;;;;;;;3.06;67.71;94734.28;5031978;28;20030;-60
2021/12/20 05:07:00;;;;;;;10.30;6.88;;;;;;;3.06;67.76;94722.34;5013923;28;20033;-64
2021/12/20 05:09:28;;;;;;;10.52;6.93;;;;;;;2.66;68.26;94697.59;5031430;28;20068;-64
2021/12/20 05:12:01;;;;;;;11.23;6.05;;;;;;;2.77;68.36;94713.28;5031814;28;20449;-62
2021/12/20 05:14:27;;;;;;;10.35;6.93;;;;;;;2.97;68.86;94749.91;5030864;28;20143;-62
2021/12/20 05:16:52;;;;;;;8.68;5.40;;;;;;;2.93;68.78;94755.09;5031212;28;20052;-61
2021/12/20 05:19:18;;;;;;;10.98;6.32;;;;;;;2.88;69.46;94758.72;5031572;28;20033;-64
2021/12/20 05:21:43;;;;;;;8.68;6.80;;;;;;;2.71;69.47;94742.34;5031659;28;20026;-64
2021/12/20 05:24:09;;;;;;;8.13;5.93;;;;;;;2.85;69.80;94746.09;5031599;28;20455;-61
2021/12/20 05:26:34;;;;;;;8.68;6.13;;;;;;;2.47;70.31;94710.16;5031029;28;20028;-61
2021/12/20 05:29:05;;;;;;;7.22;5.40;;;;;;;2.67;70.35;94753.56;5031355;28;20033;-62
2021/12/20 05:31:33;;;;;;;10.07;7.22;;;;;;;2.54;70.59;94742.97;5031299;28;20029;-62
2021/12/20 05:33:58;;;;;;;9.65;6.95;;;;;;;2.22;70.92;94690.69;5013139;28;20075;-62
2021/12/20 05:36:24;;;;;;;11.27;6.03;;;;;;;2.28;71.24;94715.91;5031198;28;20033;-65
2021/12/20 05:38:49;;;;;;;10.10;5.25;;;;;;;2.31;71.29;94708.16;5030889;28;20041;-63
2021/12/20 05:41:14;;;;;;;9.43;5.60;;;;;;;2.49;71.22;94738.91;5013251;28;20116;-63
2021/12/20 05:43:40;;;;;;;8.52;5.60;;;;;;;2.15;70.84;94689.25;5031354;28;20044;-62
2021/12/20 05:46:05;;;;;;;9.55;6.20;;;;;;;2.24;70.95;94694.00;5030686;28;20034;-62
2021/12/20 05:48:31;;;;;;;6.95;4.63;;;;;;;2.43;70.52;94714.53;5027687;28;20037;-62
2021/12/20 05:50:56;;;;;;;8.35;5.63;;;;;;;2.26;70.49;94699.84;5030017;28;20037;-63
2021/12/20 05:53:22;;;;;;;9.38;5.75;;;;;;;2.58;70.18;94753.88;5030833;28;20112;-62
2021/12/20 05:55:47;;;;;;;8.75;5.82;;;;;;;2.28;70.25;94709.97;5030977;28;20025;-64
2021/12/20 05:58:13;;;;;;;7.57;5.40;;;;;;;2.51;69.87;94747.31;5030474;28;20167;-63
2021/12/20 06:00:38;;;;;;;12.27;7.15;;;;;;;2.70;70.35;94772.97;5029642;28;20033;-63
2021/12/20 06:03:04;;;;;;;8.85;6.43;;;;;;;2.82;69.46;94792.03;5030443;28;20459;-64
2021/12/20 06:05:29;;;;;;;8.90;5.75;;;;;;;2.85;69.36;94774.13;5030374;28;20481;-62
2021/12/20 06:07:56;;;;;;;8.35;5.65;;;;;;;2.87;69.10;94783.38;5022442;28;20392;-63
2021/12/20 06:10:22;;;;;;;6.22;4.68;;;;;;;2.41;69.21;94725.63;5022491;28;20040;-60
2021/12/20 06:12:47;;;;;;;7.78;5.18;;;;;;;2.85;69.07;94795.31;5009140;28;20041;-63
2021/12/20 06:15:13;;;;;;;8.70;5.68;;;;;;;2.61;68.82;94742.72;5011175;28;20080;-61
2021/12/20 06:17:40;;;;;;;9.40;5.97;;;;;;;2.57;68.63;94737.78;5019893;28;20592;-62
2021/12/20 06:20:08;;;;;;;9.27;6.80;;;;;;;2.72;68.85;94753.34;5023732;28;20167;-63
2021/12/20 06:22:34;;;;;;;7.93;5.95;;;;;;;2.61;68.20;94740.19;5008268;28;20044;-61
2021/12/20 06:25:00;;;;;;;6.35;4.10;;;;;;;3.03;67.76;94816.72;5027190;28;20108;-64
2021/12/20 06:27:26;;;;;;;8.10;6.63;;;;;;;3.02;67.74;94799.81;5029156;28;20030;-62
2021/12/20 06:29:52;;;;;;;11.65;6.65;;;;;;;3.03;67.82;94786.16;5019420;28;20029;-63
2021/12/20 06:32:18;;;;;;;7.78;5.95;;;;;;;3.20;67.57;94805.09;5023178;28;20025;-64
2021/12/20 06:34:44;;;;;;;9.23;6.97;;;;;;;3.23;67.46;94808.38;5014050;28;20036;-62
2021/12/20 06:37:11;;;;;;;9.32;6.70;;;;;;;3.09;67.28;94773.19;5026035;28;20037;-62
2021/12/20 06:39:36;;;;;;;11.20;6.82;;;;;;;2.96;67.02;94764.38;5025825;28;20109;-60
2021/12/20 06:42:02;;;;;;;8.02;5.95;;;;;;;3.41;70.20;94816.19;5026685;28;20228;-61
2021/12/20 06:44:28;;;;;;;10.18;7.65;;;;;;;3.74;67.68;94786.00;5025483;28;20581;-61
2021/12/20 06:46:54;;;;;;;8.32;5.60;;;;;;;3.95;63.68;94814.09;5026086;28;20037;-61
2021/12/20 06:49:20;;;;;;;9.30;6.60;;;;;;;3.41;65.24;94777.94;5026730;28;20072;-59
2021/12/20 06:51:46;;;;;;;10.25;7.03;;;;;;;3.43;64.74;94789.75;5025841;28;20030;-61
2021/12/20 06:54:14;;;;;;;8.93;6.30;;;;;;;3.56;65.34;94817.31;5026773;28;20037;-59
2021/12/20 06:56:40;;;;;;;7.35;4.85;;;;;;;3.54;64.96;94812.28;4986974;28;20072;-60
2021/12/20 06:59:06;;;;;;;7.32;5.15;;;;;;;3.42;65.31;94813.59;5024874;28;20061;-59
2021/12/20 07:01:32;;;;;;;8.48;5.32;;;;;;;3.38;65.58;94817.16;5024268;28;20156;-58
2021/12/20 07:03:57;;;;;;;9.88;5.63;;;;;;;3.09;65.78;94780.03;5020908;28;20026;-60
2021/12/20 07:06:23;;;;;;;8.95;5.75;;;;;;;3.36;66.05;94818.09;5025578;28;20430;-62
2021/12/20 07:08:49;;;;;;;6.10;4.53;;;;;;;2.81;66.16;94740.28;5025809;28;20132;-61
2021/12/20 07:11:15;;;;;;;7.32;4.72;;;;;;;3.21;66.31;94822.03;5025751;28;20129;-60
2021/12/20 07:13:41;;;;;;;7.65;5.35;;;;;;;3.25;66.62;94819.31;5017323;28;20055;-59
2021/12/20 07:16:07;;;;;;;10.00;6.60;;;;;;;3.34;66.12;94819.88;5017679;28;20103;-59
2021/12/20 07:18:33;;;;;;;8.98;5.88;;;;;;;3.25;66.16;94813.41;5025028;28;20500;-57
2021/12/20 07:27:35;;;;;;;10.68;6.85;;;;;;;3.59;64.83;94814.66;4834196;29;20511;-62
2021/12/20 07:30:03;;;;;;;9.88;6.22;;;;;;;3.99;63.61;94821.56;4886713;29;20611;-61
2021/12/20 07:32:28;;;;;;;8.52;4.95;;;;;;;4.08;62.50;94824.63;4887400;29;20040;-61
2021/12/20 07:34:54;;;;;;;7.47;5.57;;;;;;;3.91;63.82;94827.88;4890442;29;20036;-61
2021/12/20 07:37:19;;;;;;;7.05;4.93;;;;;;;3.35;63.16;94733.16;4889041;29;20341;-61
2021/12/20 07:39:44;;;;;;;10.50;6.68;;;;;;;4.09;63.13;94823.75;4889822;29;20051;-62
2021/12/20 07:42:10;;;;;;;9.82;5.93;;;;;;;3.85;62.70;94791.50;4888682;29;20504;-59
2021/12/20 07:44:36;;;;;;;10.40;6.13;;;;;;;3.79;62.96;94801.13;4889964;29;20453;-60
2021/12/20 07:47:02;;;;;;;9.98;6.45;;;;;;;3.72;63.43;94799.69;4890180;29;20433;-61
2021/12/20 07:49:28;;;;;;;8.88;7.07;;;;;;;4.14;62.58;94816.72;4889950;29;20568;-59
2021/12/20 07:51:53;;;;;;;9.32;6.32;;;;;;;4.05;62.11;94795.81;4889335;29;20040;-58
2021/12/20 07:54:20;;;;;;;10.75;7.03;;;;;;;4.08;62.48;94829.72;4889455;29;20051;-61
2021/12/20 07:56:45;;;;;;;8.48;5.63;;;;;;;3.78;63.12;94815.59;4889959;29;20536;-61
2021/12/20 07:59:11;;;;;;;9.20;5.97;;;;;;;3.92;62.66;94827.81;4890149;29;20037;-62
2021/12/20 08:01:37;;;;;;;6.90;5.18;;;;;;;3.82;62.76;94840.09;4919684;29;20488;-61
2021/12/20 08:04:03;;;;;;;10.65;5.38;;;;;;;3.98;62.11;94798.66;4961349;28;20088;-62
2021/12/20 08:06:29;;;;;;;8.50;4.95;;;;;;;4.18;60.87;94793.56;5027131;28;20034;-61
2021/12/20 08:08:55;;;;;;;8.48;5.78;;;;;;;4.45;60.84;94816.28;5027458;28;20565;-65
2021/12/20 08:11:20;;;;;;;9.20;5.90;;;;;;;4.60;60.23;94804.59;5026751;28;20038;-60
2021/12/20 08:13:46;;;;;;;8.55;5.60;;;;;;;4.42;60.73;94798.53;5027591;28;20033;-63
2021/12/20 08:16:15;;;;;;;8.35;6.07;;;;;;;5.58;57.69;94824.94;5027095;28;20081;-61
2021/12/20 08:18:42;;;;;;;9.13;5.65;;;;;;;7.94;50.10;94818.09;5027191;28;20426;-66
2021/12/20 08:21:08;;;;;;;7.53;4.85;;;;;;;9.31;45.35;94812.72;5027375;28;20018;-62
2021/12/20 08:23:34;;;;;;;11.30;5.78;;;;;;;8.06;48.21;94821.72;5026341;28;20033;-63
2021/12/20 08:26:00;;;;;;;9.35;4.88;;;;;;;6.41;52.04;94812.44;5027046;28;20032;-63
2021/12/20 08:28:27;;;;;;;7.75;4.72;;;;;;;5.95;53.17;94827.47;5027280;28;20022;-64
2021/12/20 08:30:53;;;;;;;8.63;4.40;;;;;;;5.79;53.72;94815.41;5027364;28;20028;-64
2021/12/20 08:33:18;;;;;;;7.72;4.72;;;;;;;5.90;54.11;94814.88;5026954;28;20022;-65
2021/12/20 08:35:44;;;;;;;6.10;4.15;;;;;;;5.20;56.21;94827.50;5023270;28;20025;-63
2021/12/20 08:38:09;;;;;;;4.78;3.38;;;;;;;4.93;56.75;94824.44;5007147;28;20030;-64
2021/12/20 08:40:35;;;;;;;7.10;4.78;;;;;;;5.03;56.27;94812.91;5023860;28;20033;-65
2021/12/20 08:43:01;;;;;;;7.78;4.32;;;;;;;4.65;57.17;94804.38;5027557;28;20041;-64
2021/12/20 08:45:27;;;;;;;5.63;3.95;;;;;;;5.88;55.48;94832.06;5025631;28;20038;-66
2021/12/20 08:47:53;;;;;;;6.03;4.13;;;;;;;8.57;45.96;94770.84;5027927;28;20037;-64
2021/12/20 08:50:20;;;;;;;6.50;4.45;;;;;;;6.38;50.18;94761.41;5027419;28;20044;-64
2021/12/20 08:52:46;;;;;;;8.18;4.75;;;;;;;5.43;54.46;94838.44;5009683;28;20511;-64
2021/12/20 08:55:12;;;;;;;8.45;4.93;;;;;;;5.07;55.48;94821.31;5015166;28;20046;-63
2021/12/20 08:57:39;;;;;;;6.40;4.35;;;;;;;4.90;56.44;94766.66;5007475;28;20498;-64
2021/12/20 09:00:08;;;;;;;6.05;4.47;;;;;;;5.15;55.49;94842.22;4989966;28;20569;-64
2021/12/20 09:02:38;;;;;;;8.18;4.15;;;;;;;4.93;56.83;94845.72;5007684;28;20030;-65
2021/12/20 09:05:04;;;;;;;5.90;3.95;;;;;;;6.91;51.27;94839.00;5008064;28;20030;-65
2021/12/20 09:07:30;;;;;;;7.72;5.00;;;;;;;5.62;53.51;94779.56;5007497;28;20026;-64
2021/12/20 09:09:56;;;;;;;7.28;3.70;;;;;;;5.01;54.86;94781.50;5019367;28;20113;-63
2021/12/20 09:12:22;;;;;;;4.00;2.83;;;;;;;4.58;56.82;94842.94;5027734;28;20507;-64
2021/12/20 09:14:48;;;;;;;5.10;3.05;;;;;;;4.59;57.09;94834.41;5026903;28;20551;-64
2021/12/20 09:17:15;;;;;;;4.65;3.22;;;;;;;4.48;56.67;94841.69;5027111;28;20543;-66
2021/12/20 09:19:40;;;;;;;5.90;3.97;;;;;;;4.59;57.83;94844.63;5026977;28;20049;-66
2021/12/20 09:22:07;;;;;;;5.82;3.88;;;;;;;4.05;56.81;94741.41;5026960;28;20071;-65
2021/12/20 09:24:33;;;;;;;5.18;3.63;;;;;;;4.75;56.23;94828.63;5026713;28;20469;-64
2021/12/20 09:27:00;;;;;;;6.38;3.55;;;;;;;5.11;55.51;94826.19;5026710;28;20109;-64
2021/12/20 09:29:25;;;;;;;6.22;3.83;;;;;;;5.93;52.89;94842.09;5025081;28;20373;-65
2021/12/20 09:31:51;;;;;;;5.03;3.20;;;;;;;5.44;53.55;94847.75;5007249;28;20034;-64
2021/12/20 09:34:16;;;;;;;7.18;3.55;;;;;;;5.20;54.43;94830.06;5007497;28;20028;-64
2021/12/20 09:36:42;;;;;;;4.47;3.28;;;;;;;5.09;54.41;94850.16;5008856;28;20386;-64
2021/12/20 09:39:11;;;;;;;5.97;3.83;;;;;;;4.68;54.22;94774.44;5015867;28;20036;-65
2021/12/20 09:42:23;;;;;;;4.70;2.75;;;;;;;5.22;53.79;94853.00;5031448;28;20251;-64
2021/12/20 09:44:25;;;;;;;5.22;2.95;;;;;;;4.64;53.54;94769.50;5016850;28;20408;-66
2021/12/20 09:46:56;;;;;;;7.55;4.03;;;;;;;5.26;53.87;94849.41;5030680;28;20037;-65
2021/12/20 09:49:22;;;;;;;5.65;3.92;;;;;;;5.11;55.03;94856.03;5030445;28;20029;-65
2021/12/20 09:51:48;;;;;;;5.57;4.07;;;;;;;4.98;55.59;94850.63;5030359;28;20033;-63
2021/12/20 09:54:14;;;;;;;7.15;4.35;;;;;;;5.08;55.61;94843.38;4996927;28;20528;-67
2021/12/20 09:56:42;;;;;;;6.15;4.43;;;;;;;4.80;55.28;94778.16;5031266;28;20029;-64
2021/12/20 09:59:12;;;;;;;4.78;3.45;;;;;;;5.10;54.67;94842.44;5026391;28;20033;-66
2021/12/20 10:01:39;;;;;;;8.50;4.32;;;;;;;5.01;55.15;94824.13;5026373;28;20035;-65
2021/12/20 10:04:07;;;;;;;4.85;3.67;;;;;;;5.19;54.35;94817.34;5018054;28;20029;-65
2021/12/20 10:06:33;;;;;;;3.53;2.58;;;;;;;5.09;54.28;94833.09;5019323;28;20025;-65
2021/12/20 10:09:09;;;;;;;3.38;2.45;;;;;;;4.90;54.73;94838.19;5015352;28;20049;-64
2021/12/20 10:11:37;;;;;;;5.85;3.30;;;;;;;5.05;55.24;94830.75;5027127;28;20113;-64
2021/12/20 10:14:10;;;;;;;4.97;3.63;;;;;;;5.04;55.06;94814.59;5025234;28;20045;-63
2021/12/20 10:16:39;;;;;;;4.30;3.30;;;;;;;5.64;54.52;94836.59;5028755;28;20052;-66
2021/12/20 10:19:09;;;;;;;4.72;3.22;;;;;;;5.82;52.94;94817.84;5026938;28;20558;-64
2021/12/20 10:21:40;;;;;;;6.05;3.63;;;;;;;5.90;53.29;94794.41;5026861;28;20048;-65
2021/12/20 10:24:06;;;;;;;6.03;4.00;;;;;;;6.17;52.70;94817.06;5024791;28;20355;-65
2021/12/20 10:26:42;;;;;;;5.55;4.15;;;;;;;5.43;54.53;94836.69;5020336;28;20618;-64
2021/12/20 10:29:22;;;;;;;5.93;4.13;;;;;;;5.43;55.12;94833.31;5007965;28;20052;-64
2021/12/20 10:31:49;;;;;;;5.78;3.97;;;;;;;5.35;55.77;94823.44;5024940;28;20124;-65
2021/12/20 10:34:18;;;;;;;7.38;5.30;;;;;;;5.37;56.35;94825.91;5020067;28;20040;-65
2021/12/20 10:36:54;;;;;;;9.63;5.60;;;;;;;5.71;55.36;94823.44;5026422;28;20107;-64
2021/12/20 10:39:41;;;;;;;4.60;3.42;;;;;;;5.60;55.77;94827.41;5025555;28;20034;-65
2021/12/20 10:42:40;;;;;;;4.57;3.70;;;;;;;5.38;56.16;94820.75;5020831;28;20056;-65
2021/12/20 10:45:13;;;;;;;9.00;5.13;;;;;;;5.59;56.98;94813.81;4929858;28;20079;-68
2021/12/20 10:47:39;;;;;;;6.47;4.35;;;;;;;5.76;56.21;94799.41;4967256;28;20498;-67
2021/12/20 10:50:34;;;;;;;6.50;4.00;;;;;;;6.75;52.97;94831.25;4967080;28;20469;-65
2021/12/20 10:53:23;;;;;;;5.60;4.28;;;;;;;6.71;53.37;94838.28;4949022;28;20117;-65
2021/12/20 10:55:55;;;;;;;4.10;3.08;;;;;;;6.25;53.70;94809.84;4951626;28;20498;-69
2021/12/20 10:58:28;;;;;;;6.65;3.85;;;;;;;7.41;51.82;94825.25;4968187;28;20463;-66
2021/12/20 11:01:30;;;;;;;5.45;4.15;;;;;;;7.26;51.43;94823.50;4967821;28;20031;-67
2021/12/20 11:04:00;;;;;;;6.72;4.63;;;;;;;10.65;43.13;94798.22;4967678;28;20125;-66
2021/12/20 11:06:38;;;;;;;5.25;3.40;;;;;;;11.51;39.90;94792.34;4968007;28;20027;-65
2021/12/20 11:09:15;;;;;;;7.03;3.92;;;;;;;10.80;41.88;94801.53;4967779;28;20101;-65
2021/12/20 11:11:48;;;;;;;4.93;3.97;;;;;;;10.05;43.02;94828.72;4967692;28;20300;-66
2021/12/20 11:14:15;;;;;;;6.50;4.47;;;;;;;10.48;40.94;94769.25;4967071;28;20042;-67
2021/12/20 11:16:51;;;;;;;4.50;2.55;;;;;;;8.99;46.16;94778.66;4992151;28;20066;-64
2021/12/20 11:19:35;;;;;;;4.90;3.08;;;;;;;8.37;45.98;94813.09;5006333;28;20053;-63
2021/12/20 11:22:17;;;;;;;6.03;4.22;;;;;;;6.95;49.65;94796.91;5031494;28;20389;-64
2021/12/20 11:24:51;;;;;;;7.82;3.78;;;;;;;6.35;52.13;94820.47;5047474;28;20361;-64
2021/12/20 11:27:33;;;;;;;5.43;3.10;;;;;;;5.84;53.70;94823.72;5048468;28;20032;-65
2021/12/20 11:29:59;;;;;;;;;;;;;;;5.26;55.24;94819.56;5048664;28;20021;-63
2021/12/20 11:32:26;;;;;;;4.25;2.58;;;;;;;5.15;55.93;94820.06;5048279;28;19964;-65
2021/12/20 11:34:52;;;;;;;5.68;4.20;;;;;;;5.43;55.48;94816.25;5048482;28;20052;-64
2021/12/20 11:37:25;;;;;;;6.47;4.93;;;;;;;5.51;55.35;94828.69;5047759;28;20045;-65
2021/12/20 11:39:51;;;;;;;6.03;3.85;;;;;;;5.06;55.49;94792.34;5047663;28;20069;-63
2021/12/20 11:42:17;;;;;;;4.47;3.22;;;;;;;5.61;55.22;94829.91;5048378;28;20079;-65
2021/12/20 11:47:59;;;;;;;6.95;3.65;;;;;;;7.96;48.24;94818.00;5025346;28;20037;-64
2021/12/20 11:50:38;;;;;;;6.18;4.20;;;;;;;10.41;42.26;94814.41;5020704;28;20022;-65
2021/12/20 11:53:09;;;;;;;6.35;3.65;;;;;;;9.70;41.99;94780.25;5005926;28;20089;-64
2021/12/20 11:55:35;;;;;;;;;;;;;;;8.42;45.38;94836.78;5006200;28;20042;-67
2021/12/20 11:58:03;;;;;;;6.25;4.07;;;;;;;7.34;48.23;94803.41;5005829;28;20355;-65
2021/12/20 12:00:35;;;;;;;4.82;3.33;;;;;;;7.72;47.45;94828.72;5004910;28;20116;-66
2021/12/20 12:03:06;;;;;;;5.93;3.00;;;;;;;6.30;50.83;94800.19;5005127;28;20125;-64